createdAt,value
2023-01-11T00:00:55.311Z,100718.88
2023-01-11T00:03:21.931Z,100729.31
2023-01-11T00:05:48.538Z,100731.13
2023-01-11T00:08:15.125Z,100719.75
2023-01-11T00:10:42.042Z,100717.06
2023-01-11T00:13:08.954Z,100716.19
2023-01-11T00:15:38.124Z,100713.69
2023-01-11T00:18:07.805Z,100709.38
2023-01-11T00:20:34.557Z,100708.50
2023-01-11T00:23:01.329Z,100700.59
2023-01-11T00:25:27.940Z,100707.59
2023-01-11T00:27:55.256Z,100711.09
2023-01-11T00:30:22.078Z,100699.78
2023-01-11T00:32:48.819Z,100703.34
2023-01-11T00:35:15.950Z,100684.19
2023-01-11T00:37:42.773Z,100679.03
2023-01-11T00:40:09.905Z,100678.97
2023-01-11T00:42:55.150Z,100681.56
2023-01-11T00:45:43.409Z,100675.47
2023-01-11T00:48:10.825Z,100676.34
2023-01-11T00:50:39.572Z,100676.47
2023-01-11T00:53:10.550Z,100666.81
2023-01-11T00:55:37.213Z,100668.56
2023-01-11T00:58:06.565Z,100665.06
2023-01-11T01:00:33.199Z,100658.13
2023-01-11T01:02:59.819Z,100662.47
2023-01-11T01:05:26.859Z,100651.22
2023-01-11T01:07:53.503Z,100663.41
2023-01-11T01:10:20.545Z,100639.03
2023-01-11T01:13:06.073Z,100642.50
2023-01-11T01:15:33.053Z,100639.88
2023-01-11T01:17:59.982Z,100636.41
2023-01-11T01:20:27.239Z,100632.91
2023-01-11T01:22:53.967Z,100631.16
2023-01-11T01:25:20.588Z,100634.59
2023-01-11T01:27:47.254Z,100625.03
2023-01-11T01:30:14.221Z,100625.94
2023-01-11T01:32:40.837Z,100625.94
2023-01-11T01:35:08.032Z,100627.63
2023-01-11T01:37:34.653Z,100622.41
2023-01-11T01:40:01.459Z,100617.19
2023-01-11T01:42:28.141Z,100610.16
2023-01-11T01:45:02.474Z,100608.47
2023-01-11T01:47:32.625Z,100606.72
2023-01-11T01:50:02.025Z,100604.97
2023-01-11T01:52:29.457Z,100605.88
2023-01-11T01:54:58.049Z,100605.84
2023-01-11T01:57:27.584Z,100594.59
2023-01-11T01:59:55.984Z,100595.47
2023-01-11T02:02:24.401Z,100591.94
2023-01-11T02:04:51.474Z,100580.66
2023-01-11T02:07:20.217Z,100578.91
2023-01-11T02:09:51.574Z,100566.72
2023-01-11T02:12:18.566Z,100562.38
2023-01-11T02:14:45.718Z,100551.94
2023-01-11T02:17:12.942Z,100550.19
2023-01-11T02:19:51.893Z,100550.16
2023-01-11T02:22:31.040Z,100556.25
2023-01-11T02:25:00.528Z,100537.09
2023-01-11T02:28:01.387Z,100535.34
2023-01-11T02:30:50.034Z,100526.66
2023-01-11T02:33:28.482Z,100518.78
2023-01-11T02:36:08.761Z,100508.31
2023-01-11T02:38:59.442Z,100511.84
2023-01-11T02:41:55.941Z,100512.72
2023-01-11T02:44:54.557Z,100510.97
2023-01-11T02:47:42.526Z,100500.50
2023-01-11T02:50:32.976Z,100489.19
2023-01-11T02:53:26.791Z,100494.38
2023-01-11T02:55:57.641Z,100495.31
2023-01-11T02:58:27.609Z,100473.50
2023-01-11T03:00:55.914Z,100471.78
2023-01-11T03:03:24.898Z,100466.53
2023-01-11T03:05:54.354Z,100468.31
2023-01-11T03:08:58.060Z,100470.06
2023-01-11T03:11:49.387Z,100472.69
2023-01-11T03:14:24.943Z,100474.41
2023-01-11T03:17:18.865Z,100465.69
2023-01-11T03:19:48.433Z,100475.31
2023-01-11T03:22:29.248Z,100463.13
2023-01-11T03:24:59.612Z,100456.16
2023-01-11T03:27:55.938Z,100452.72
2023-01-11T03:30:29.237Z,100441.41
2023-01-11T03:33:10.655Z,100437.88
2023-01-11T03:35:48.263Z,100436.13
2023-01-11T03:38:31.383Z,100431.78
2023-01-11T03:41:02.228Z,100438.78
2023-01-11T03:43:30.024Z,100438.78
2023-01-11T03:46:04.906Z,100433.56
2023-01-11T03:49:01.515Z,100444.03
2023-01-11T03:51:30.141Z,100423.97
2023-01-11T03:53:58.754Z,100424.81
2023-01-11T03:56:32.722Z,100427.47
2023-01-11T03:58:59.317Z,100419.63
2023-01-11T04:01:26.372Z,100421.34
2023-01-11T04:03:52.997Z,100424.84
2023-01-11T04:06:19.722Z,100431.84
2023-01-11T04:08:46.316Z,100429.19
2023-01-11T04:11:12.979Z,100430.97
2023-01-11T04:13:39.609Z,100417.00
2023-01-11T04:16:06.720Z,100415.25
2023-01-11T04:18:33.418Z,100417.00
2023-01-11T04:21:00.097Z,100411.78
2023-01-11T04:23:26.906Z,100414.38
2023-01-11T04:25:53.529Z,100417.84
2023-01-11T04:28:20.238Z,100413.50
2023-01-11T04:30:48.186Z,100411.75
2023-01-11T04:33:14.885Z,100407.41
2023-01-11T04:35:42.297Z,100393.44
2023-01-11T04:38:08.973Z,100393.44
2023-01-11T04:40:35.598Z,100385.59
2023-01-11T04:43:02.490Z,100381.28
2023-01-11T04:45:30.453Z,100370.81
2023-01-11T04:47:57.736Z,100376.91
2023-01-11T04:50:25.471Z,100382.13
2023-01-11T04:52:52.369Z,100385.59
2023-01-11T04:55:19.601Z,100368.16
2023-01-11T04:57:46.446Z,100375.16
2023-01-11T05:00:15.856Z,100369.06
2023-01-11T05:02:42.517Z,100360.31
2023-01-11T05:05:13.267Z,100362.06
2023-01-11T05:07:39.925Z,100357.72
2023-01-11T05:10:06.903Z,100360.31
2023-01-11T05:12:33.495Z,100358.56
2023-01-11T05:15:00.121Z,100354.19
2023-01-11T05:17:26.700Z,100343.72
2023-01-11T05:19:53.408Z,100341.13
2023-01-11T05:22:19.980Z,100331.53
2023-01-11T05:24:46.632Z,100327.19
2023-01-11T05:27:13.221Z,100321.06
2023-01-11T05:29:39.817Z,100318.47
2023-01-11T05:32:06.450Z,100309.72
2023-01-11T05:34:33.134Z,100323.66
2023-01-11T05:36:59.776Z,100314.06
2023-01-11T05:39:26.399Z,100309.69
2023-01-11T05:41:52.946Z,100319.28
2023-01-11T05:44:38.405Z,100309.72
2023-01-11T05:47:05.055Z,100314.94
2023-01-11T05:49:31.637Z,100318.44
2023-01-11T05:51:58.255Z,100320.16
2023-01-11T05:54:24.872Z,100310.56
2023-01-11T05:56:51.489Z,100296.59
2023-01-11T05:59:18.076Z,100307.94
2023-01-11T06:01:44.696Z,100301.81
2023-01-11T06:04:11.536Z,100307.03
2023-01-11T06:06:38.275Z,100307.06
2023-01-11T06:09:04.985Z,100304.44
2023-01-11T06:11:31.587Z,100302.69
2023-01-11T06:13:58.149Z,100300.09
2023-01-11T06:16:24.868Z,100291.38
2023-01-11T06:18:53.254Z,100293.09
2023-01-11T06:21:20.561Z,100281.75
2023-01-11T06:23:50.686Z,100280.91
2023-01-11T06:26:19.653Z,100281.75
2023-01-11T06:28:46.876Z,100280.88
2023-01-11T06:31:16.066Z,100278.22
2023-01-11T06:33:43.701Z,100275.63
2023-01-11T06:36:12.256Z,100261.63
2023-01-11T06:38:39.039Z,100276.50
2023-01-11T06:41:08.402Z,100270.38
2023-01-11T06:43:36.503Z,100268.63
2023-01-11T06:46:03.226Z,100276.47
2023-01-11T06:48:29.897Z,100273.00
2023-01-11T06:50:57.981Z,100277.31
2023-01-11T06:53:28.319Z,100275.63
2023-01-11T06:55:57.119Z,100272.94
2023-01-11T06:58:24.663Z,100273.84
2023-01-11T07:00:52.747Z,100276.47
2023-01-11T07:03:20.632Z,100277.31
2023-01-11T07:05:47.513Z,100267.72
2023-01-11T07:08:14.108Z,100280.78
2023-01-11T07:10:41.675Z,100274.66
2023-01-11T07:13:08.316Z,100271.22
2023-01-11T07:15:35.062Z,100272.03
2023-01-11T07:18:02.291Z,100280.75
2023-01-11T07:20:29.463Z,100272.00
2023-01-11T07:23:00.230Z,100281.63
2023-01-11T07:25:28.000Z,100275.50
2023-01-11T07:28:02.792Z,100279.00
2023-01-11T07:30:31.086Z,100285.09
2023-01-11T07:32:58.893Z,100287.75
2023-01-11T07:35:28.109Z,100289.47
2023-01-11T07:37:55.565Z,100291.25
2023-01-11T07:40:22.192Z,100289.50
2023-01-11T07:43:08.832Z,100295.59
2023-01-11T07:45:45.262Z,100290.38
2023-01-11T07:48:12.521Z,100297.38
2023-01-11T07:50:41.239Z,100299.16
2023-01-11T07:53:09.754Z,100301.72
2023-01-11T07:55:37.793Z,100301.75
2023-01-11T07:58:04.451Z,100288.66
2023-01-11T08:00:31.109Z,100293.03
2023-01-11T08:02:58.137Z,100297.41
2023-01-11T08:05:24.995Z,100299.97
2023-01-11T08:07:51.611Z,100291.28
2023-01-11T08:10:18.300Z,100294.78
2023-01-11T08:13:05.031Z,100286.03
2023-01-11T08:15:32.713Z,100285.16
2023-01-11T08:17:59.607Z,100280.81
2023-01-11T08:20:27.148Z,100277.31
2023-01-11T08:22:54.006Z,100281.69
2023-01-11T08:25:20.898Z,100279.97
2023-01-11T08:27:47.757Z,100277.34
2023-01-11T08:30:14.715Z,100279.97
2023-01-11T08:32:41.377Z,100278.25
2023-01-11T08:35:08.310Z,100282.63
2023-01-11T08:37:34.963Z,100276.50
2023-01-11T08:40:01.606Z,100274.75
2023-01-11T08:42:28.281Z,100275.63
2023-01-11T08:44:55.549Z,100268.69
2023-01-11T08:47:22.480Z,100270.41
2023-01-11T08:49:49.116Z,100267.78
2023-01-11T08:52:15.713Z,100262.56
2023-01-11T08:54:42.434Z,100267.81
2023-01-11T08:57:09.809Z,100267.78
2023-01-11T08:59:36.483Z,100266.06
2023-01-11T09:02:04.912Z,100267.78
2023-01-11T09:04:32.050Z,100273.03
2023-01-11T09:06:58.672Z,100274.75
2023-01-11T09:09:25.448Z,100275.63
2023-01-11T09:11:55.025Z,100277.34
2023-01-11T09:14:22.764Z,100278.28
2023-01-11T09:16:49.384Z,100273.00
2023-01-11T09:19:15.984Z,100266.94
2023-01-11T09:21:43.395Z,100280.88
2023-01-11T09:24:09.980Z,100279.09
2023-01-11T09:26:38.014Z,100284.34
2023-01-11T09:29:05.266Z,100279.13
2023-01-11T09:31:32.105Z,100279.97
2023-01-11T09:33:58.802Z,100276.47
2023-01-11T09:36:27.817Z,100271.22
2023-01-11T09:38:57.400Z,100279.94
2023-01-11T09:42:01.194Z,100275.63
2023-01-11T09:44:32.586Z,100259.84
2023-01-11T09:47:19.696Z,100260.72
2023-01-11T09:49:54.516Z,100265.09
2023-01-11T09:52:28.746Z,100259.84
2023-01-11T09:55:01.320Z,100267.72
2023-01-11T09:57:50.343Z,100257.22
2023-01-11T10:00:33.630Z,100258.94
2023-01-11T10:03:45.021Z,100260.69
2023-01-11T10:06:11.599Z,100255.44
2023-01-11T10:18:34.080Z,100243.19
2023-01-11T10:18:41.879Z,100242.25
2023-01-11T10:21:13.407Z,100245.75
2023-01-11T10:23:56.001Z,100238.72
2023-01-11T10:26:28.751Z,100229.09
2023-01-11T10:29:16.802Z,100229.94
2023-01-11T10:32:03.311Z,100229.09
2023-01-11T10:34:53.173Z,100225.59
2023-01-11T10:37:42.021Z,100228.13
2023-01-11T10:40:30.372Z,100222.84
2023-01-11T10:43:03.433Z,100223.72
2023-01-11T10:45:37.538Z,100214.94
2023-01-11T10:48:10.150Z,100208.81
2023-01-11T10:50:42.043Z,100207.94
2023-01-11T10:53:40.722Z,100207.91
2023-01-11T10:57:02.535Z,100207.84
2023-01-11T11:00:17.529Z,100205.25
2023-01-11T11:03:11.137Z,100206.19
2023-01-11T11:05:37.733Z,100195.63
2023-01-11T11:08:46.667Z,100199.94
2023-01-11T11:11:22.391Z,100194.69
2023-01-11T11:14:37.496Z,100187.69
2023-01-11T11:17:22.610Z,100183.34
2023-01-11T11:19:49.492Z,100170.22
2023-01-11T11:22:16.298Z,100171.06
2023-01-11T11:24:49.797Z,100170.16
2023-01-11T11:27:21.387Z,100169.22
2023-01-11T11:29:55.901Z,100173.59
2023-01-11T11:32:28.489Z,100166.66
2023-01-11T11:34:55.447Z,100157.03
2023-01-11T11:37:33.535Z,100163.97
2023-01-11T11:40:00.359Z,100157.00
2023-01-11T11:42:27.238Z,100160.47
2023-01-11T11:45:09.079Z,100149.81
2023-01-11T11:47:36.612Z,100153.38
2023-01-11T11:50:27.339Z,100146.31
2023-01-11T11:53:04.832Z,100151.59
2023-01-11T11:55:33.798Z,100142.88
2023-01-11T11:58:05.283Z,100145.47
2023-01-11T12:00:41.592Z,100138.44
2023-01-11T12:03:17.518Z,100142.81
2023-01-11T12:05:52.807Z,100138.53
2023-01-11T12:08:20.106Z,100131.34
2023-01-11T12:10:53.974Z,100127.09
2023-01-11T12:13:33.032Z,100134.94
2023-01-11T12:16:26.662Z,100122.53
2023-01-11T12:18:56.355Z,100127.81
2023-01-11T12:21:25.529Z,100122.59
2023-01-11T12:24:09.033Z,100118.28
2023-01-11T12:27:08.073Z,100112.13
2023-01-11T12:30:00.569Z,100110.25
2023-01-11T12:33:07.179Z,100105.81
2023-01-11T12:35:54.161Z,100104.16
2023-01-11T12:38:32.877Z,100099.72
2023-01-11T12:41:20.935Z,100104.03
2023-01-11T12:43:58.178Z,100089.03
2023-01-11T12:46:54.512Z,100099.66
2023-01-11T12:49:49.045Z,100096.16
2023-01-11T12:52:35.881Z,100094.41
2023-01-11T12:55:26.315Z,100093.59
2023-01-11T12:58:00.400Z,100093.53
2023-01-11T13:00:37.758Z,100088.16
2023-01-11T13:03:43.560Z,100093.41
2023-01-11T13:06:15.111Z,100088.22
2023-01-11T13:08:53.197Z,100088.19
2023-01-11T13:11:53.799Z,100086.41
2023-01-11T13:14:39.442Z,100080.19
2023-01-11T13:17:24.857Z,100081.00
2023-01-11T13:20:02.740Z,100085.41
2023-01-11T13:22:33.810Z,100087.94
2023-01-11T13:25:03.421Z,100089.81
2023-01-11T13:27:31.886Z,100088.94
2023-01-11T13:30:00.948Z,100084.47
2023-01-11T13:32:31.106Z,100083.63
2023-01-11T13:35:03.162Z,100088.06
2023-01-11T13:37:34.447Z,100093.34
2023-01-11T13:40:18.191Z,100095.19
2023-01-11T13:42:51.341Z,100099.44
2023-01-11T13:45:27.707Z,100097.69
2023-01-11T13:47:56.998Z,100096.06
2023-01-11T13:50:33.471Z,100101.13
2023-01-11T13:53:18.553Z,100099.44
2023-01-11T13:56:03.230Z,100095.94
2023-01-11T13:58:44.527Z,100103.66
2023-01-11T14:01:14.502Z,100100.28
2023-01-11T14:03:54.096Z,100098.53
2023-01-11T14:06:42.447Z,100109.75
2023-01-11T14:09:26.002Z,100105.44
2023-01-11T14:12:01.901Z,100108.84
2023-01-11T14:14:43.972Z,100114.16
2023-01-11T14:17:17.165Z,100125.50
2023-01-11T14:19:53.726Z,100119.34
2023-01-11T14:23:10.663Z,100122.88
2023-01-11T14:25:53.140Z,100113.31
2023-01-11T14:28:35.000Z,100122.03
2023-01-11T14:31:24.882Z,100123.84
2023-01-11T14:34:10.942Z,100126.53
2023-01-11T14:36:59.297Z,100133.41
2023-01-11T14:39:35.881Z,100142.19
2023-01-11T14:42:31.111Z,100132.50
2023-01-11T14:45:16.788Z,100136.09
2023-01-11T14:47:59.855Z,100136.03
2023-01-11T14:50:32.372Z,100135.25
2023-01-11T14:53:00.988Z,100139.56
2023-01-11T14:55:30.065Z,100143.06
2023-01-11T14:57:56.648Z,100134.22
2023-01-11T15:00:23.168Z,100143.06
2023-01-11T15:02:59.766Z,100136.88
2023-01-11T15:05:29.594Z,100137.81
2023-01-11T15:08:14.459Z,100140.44
2023-01-11T15:10:58.656Z,100142.22
2023-01-11T15:13:28.279Z,100143.09
2023-01-11T15:16:27.550Z,100146.56
2023-01-11T15:18:54.912Z,100144.00
2023-01-11T15:21:24.163Z,100149.25
2023-01-11T15:23:56.912Z,100148.38
2023-01-11T15:26:25.045Z,100151.88
2023-01-11T15:28:54.044Z,100148.31
2023-01-11T15:31:37.527Z,100147.34
2023-01-11T15:34:43.969Z,100162.25
2023-01-11T15:37:38.395Z,100154.38
2023-01-11T15:40:05.241Z,100164.06
2023-01-11T15:42:47.999Z,100163.97
2023-01-11T15:46:11.323Z,100175.19
2023-01-11T15:49:05.877Z,100175.09
2023-01-11T15:52:14.098Z,100174.22
2023-01-11T15:55:14.740Z,100190.03
2023-01-11T15:58:18.842Z,100186.53
2023-01-11T16:01:21.685Z,100182.03
2023-01-11T16:03:54.221Z,100183.00
2023-01-11T16:06:30.144Z,100191.75
2023-01-11T16:09:05.901Z,100192.66
2023-01-11T16:12:07.695Z,100197.91
2023-01-11T16:15:12.810Z,100210.94
2023-01-11T16:17:42.776Z,100207.41
2023-01-11T16:20:26.546Z,100205.72
2023-01-11T16:22:58.937Z,100215.31
2023-01-11T16:25:29.401Z,100217.16
2023-01-11T16:27:58.435Z,100219.78
2023-01-11T16:30:26.466Z,100221.53
2023-01-11T16:32:53.708Z,100223.22
2023-01-11T16:35:24.897Z,100237.16
2023-01-11T16:37:54.210Z,100236.28
2023-01-11T16:40:37.140Z,100226.66
2023-01-11T16:43:11.655Z,100222.31
2023-01-11T16:45:50.356Z,100224.91
2023-01-11T16:48:24.983Z,100220.59
2023-01-11T16:51:07.332Z,100222.38
2023-01-11T16:53:36.139Z,100227.66
2023-01-11T16:56:08.365Z,100234.66
2023-01-11T16:58:36.658Z,100234.59
2023-01-11T17:01:14.126Z,100238.09
2023-01-11T17:03:46.886Z,100239.03
2023-01-11T17:06:13.451Z,100242.53
2023-01-11T17:08:56.916Z,100239.88
2023-01-11T17:11:31.847Z,100241.63
2023-01-11T17:14:40.693Z,100246.00
2023-01-11T17:17:10.003Z,100247.72
2023-01-11T17:19:43.191Z,100248.63
2023-01-11T17:22:19.150Z,100253.78
2023-01-11T17:25:01.324Z,100250.31
2023-01-11T17:27:30.687Z,100260.84
2023-01-11T17:29:58.285Z,100269.47
2023-01-11T17:32:59.042Z,100273.06
2023-01-11T17:35:34.746Z,100287.84
2023-01-11T17:38:08.611Z,100287.91
2023-01-11T17:40:38.456Z,100289.63
2023-01-11T17:43:38.522Z,100287.03
2023-01-11T17:46:05.850Z,100293.16
2023-01-11T17:48:33.070Z,100293.91
2023-01-11T17:51:01.199Z,100303.63
2023-01-11T17:53:28.653Z,100290.47
2023-01-11T17:55:56.924Z,100292.00
2023-01-11T17:58:28.593Z,100294.66
2023-01-11T18:01:04.840Z,100291.00
2023-01-11T18:03:39.600Z,100290.25
2023-01-11T18:06:23.943Z,100293.81
2023-01-11T18:08:53.849Z,100297.19
2023-01-11T18:11:23.332Z,100291.91
2023-01-11T18:13:54.401Z,100298.16
2023-01-11T18:16:22.342Z,100295.50
2023-01-11T18:18:50.948Z,100302.59
2023-01-11T18:21:26.611Z,100302.59
2023-01-11T18:24:21.476Z,100309.53
2023-01-11T18:26:48.258Z,100309.41
2023-01-11T18:29:36.834Z,100304.19
2023-01-11T18:32:04.595Z,100307.63
2023-01-11T18:34:32.087Z,100300.69
2023-01-11T18:36:59.765Z,100311.34
2023-01-11T18:39:28.452Z,100308.66
2023-01-11T18:42:10.359Z,100313.13
2023-01-11T18:44:42.215Z,100329.72
2023-01-11T18:47:29.713Z,100320.16
2023-01-11T18:49:57.292Z,100319.25
2023-01-11T18:52:27.615Z,100320.94
2023-01-11T18:54:55.679Z,100315.75
2023-01-11T18:57:23.653Z,100327.94
2023-01-11T18:59:54.319Z,100328.66
2023-01-11T19:02:24.192Z,100327.88
2023-01-11T19:04:51.870Z,100328.75
2023-01-11T19:07:18.676Z,100335.72
2023-01-11T19:09:45.539Z,100352.25
2023-01-11T19:12:13.222Z,100351.53
2023-01-11T19:14:43.385Z,100359.34
2023-01-11T19:17:11.021Z,100352.31
2023-01-11T19:19:37.745Z,100354.06
2023-01-11T19:22:04.700Z,100363.81
2023-01-11T19:24:31.836Z,100366.34
2023-01-11T19:26:58.573Z,100365.44
2023-01-11T19:29:25.486Z,100364.72
2023-01-11T19:31:53.388Z,100368.19
2023-01-11T19:34:20.301Z,100366.44
2023-01-11T19:36:47.239Z,100369.94
2023-01-11T19:39:13.995Z,100362.19
2023-01-11T19:41:57.991Z,100368.28
2023-01-11T19:44:26.944Z,100370.13
2023-01-11T19:47:09.629Z,100375.50
2023-01-11T19:49:36.943Z,100374.78
2023-01-11T19:52:03.645Z,100374.75
2023-01-11T19:54:30.347Z,100379.19
2023-01-11T19:56:57.010Z,100387.75
2023-01-11T19:59:23.645Z,100390.38
2023-01-11T20:01:50.317Z,100398.19
2023-01-11T20:04:17.274Z,100400.81
2023-01-11T20:06:51.763Z,100399.97
2023-01-11T20:09:19.773Z,100410.53
2023-01-11T20:11:49.053Z,100406.22
2023-01-11T20:14:16.916Z,100411.47
2023-01-11T20:16:43.697Z,100409.66
2023-01-11T20:19:10.695Z,100409.59
2023-01-11T20:21:37.510Z,100415.97
2023-01-11T20:24:04.705Z,100405.38
2023-01-11T20:26:34.072Z,100402.78
2023-01-11T20:29:01.210Z,100414.22
2023-01-11T20:31:31.648Z,100412.53
2023-01-11T20:34:05.678Z,100414.34
2023-01-11T20:36:32.404Z,100418.72
2023-01-11T20:38:59.299Z,100414.34
2023-01-11T20:41:46.127Z,100424.00
2023-01-11T20:44:22.137Z,100429.25
2023-01-11T20:46:48.910Z,100421.34
2023-01-11T20:49:16.562Z,100422.31
2023-01-11T20:51:44.170Z,100423.25
2023-01-11T20:54:11.269Z,100430.25
2023-01-11T20:56:38.940Z,100440.81
2023-01-11T20:59:07.137Z,100442.59
2023-01-11T21:01:33.955Z,100445.25
2023-01-11T21:04:03.175Z,100453.16
2023-01-11T21:06:35.951Z,100456.66
2023-01-11T21:09:03.812Z,100447.03
2023-01-11T21:11:31.419Z,100434.75
2023-01-11T21:14:01.475Z,100432.06
2023-01-11T21:16:29.338Z,100431.28
2023-01-11T21:19:01.486Z,100438.28
2023-01-11T21:21:29.806Z,100430.44
2023-01-11T21:23:58.952Z,100440.94
2023-01-11T21:26:26.617Z,100438.41
2023-01-11T21:28:55.732Z,100434.09
2023-01-11T21:31:22.939Z,100449.84
2023-01-11T21:33:50.076Z,100449.00
2023-01-11T21:36:23.043Z,100446.38
2023-01-11T21:38:56.055Z,100443.72
2023-01-11T21:41:49.731Z,100448.16
2023-01-11T21:44:18.710Z,100454.28
2023-01-11T21:46:46.012Z,100451.66
2023-01-11T21:49:13.289Z,100453.44
2023-01-11T21:51:43.268Z,100454.31
2023-01-11T21:54:20.476Z,100448.19
2023-01-11T21:56:49.952Z,100450.88
2023-01-11T21:59:23.681Z,100456.13
2023-01-11T22:01:50.436Z,100459.63
2023-01-11T22:04:19.174Z,100455.28
2023-01-11T22:06:53.165Z,100450.91
2023-01-11T22:09:20.546Z,100450.94
2023-01-11T22:11:47.266Z,100445.72
2023-01-11T22:14:14.702Z,100453.56
2023-01-11T22:16:44.245Z,100449.22
2023-01-11T22:19:11.918Z,100454.44
2023-01-11T22:21:38.617Z,100450.03
2023-01-11T22:24:10.351Z,100442.19
2023-01-11T22:26:40.706Z,100443.97
2023-01-11T22:29:20.255Z,100439.63
2023-01-11T22:31:54.857Z,100438.78
2023-01-11T22:34:22.379Z,100446.63
2023-01-11T22:36:49.282Z,100441.41
2023-01-11T22:39:16.691Z,100441.41
2023-01-11T22:41:45.609Z,100445.75
2023-01-11T22:44:15.233Z,100437.03
2023-01-11T22:46:42.277Z,100430.09
2023-01-11T22:49:14.836Z,100428.31
2023-01-11T22:51:43.042Z,100424.81
2023-01-11T22:54:10.894Z,100426.56
2023-01-11T22:56:39.773Z,100423.97
2023-01-11T22:59:09.327Z,100428.31
2023-01-11T23:01:38.636Z,100425.72
2023-01-11T23:04:10.409Z,100417.84
2023-01-11T23:06:40.302Z,100423.13
2023-01-11T23:09:17.528Z,100427.44
2023-01-11T23:12:03.168Z,100434.44
2023-01-11T23:14:31.035Z,100431.81
2023-01-11T23:17:11.720Z,100425.72
2023-01-11T23:19:43.795Z,100415.25
2023-01-11T23:22:13.272Z,100420.47
2023-01-11T23:24:45.501Z,100423.09
2023-01-11T23:27:12.186Z,100408.25
2023-01-11T23:29:39.161Z,100409.16
2023-01-11T23:32:05.960Z,100409.13
2023-01-11T23:34:32.724Z,100409.13
2023-01-11T23:37:02.379Z,100415.25
2023-01-11T23:39:30.696Z,100406.53
2023-01-11T23:42:15.978Z,100401.31
2023-01-11T23:44:46.980Z,100401.31
2023-01-11T23:47:26.708Z,100400.41
2023-01-11T23:49:58.410Z,100393.44
2023-01-11T23:52:26.836Z,100395.19
2023-01-11T23:54:54.212Z,100395.19
2023-01-11T23:57:21.732Z,100389.94
2023-01-11T23:59:48.608Z,100389.94
